Time;durP1;ratioP1;P1;durP2;ratioP2;P2;SDS_P1;SDS_P2;PMS_P1;PMS_P2;Temp;Humidity;BMP_temperature;BMP_pressure;BME280_temperature;BME280_humidity;BME280_pressure;Samples;Min_cycle;Max_cycle;Signal;HPM_P1;HPM_P2
2021/07/05 00:00:15;;;;;;;3.78;1.67;;;17.20;90.10;;;;;;5073449;28;20039;-76
2021/07/05 00:02:43;;;;;;;5.63;1.40;;;17.20;90.10;;;;;;5073304;28;20025;-76
2021/07/05 00:05:10;;;;;;;3.35;1.30;;;17.20;90.10;;;;;;5056703;28;20036;-76
2021/07/05 00:07:36;;;;;;;2.95;1.40;;;17.20;90.10;;;;;;5057261;28;20524;-76
2021/07/05 00:10:04;;;;;;;4.18;1.10;;;17.10;90.00;;;;;;5056612;28;20074;-76
2021/07/05 00:12:29;;;;;;;1.87;1.27;;;17.10;90.00;;;;;;5058156;28;20024;-76
2021/07/05 00:14:55;;;;;;;5.53;1.90;;;17.10;90.00;;;;;;5076714;28;20093;-76
2021/07/05 00:17:21;;;;;;;4.43;1.50;;;17.10;90.10;;;;;;5075320;28;20120;-76
2021/07/05 00:19:46;;;;;;;5.03;1.40;;;17.00;90.10;;;;;;5061077;28;20107;-76
2021/07/05 00:22:12;;;;;;;1.50;1.00;;;17.00;90.10;;;;;;5075851;28;20112;-76
2021/07/05 00:24:38;;;;;;;3.45;1.80;;;17.00;90.20;;;;;;5054855;28;20041;-76
2021/07/05 00:27:03;;;;;;;3.65;1.15;;;17.00;90.20;;;;;;5056242;28;20075;-76
2021/07/05 00:29:29;;;;;;;2.72;1.20;;;17.00;90.20;;;;;;5056198;28;20029;-76
2021/07/05 00:31:55;;;;;;;6.07;1.20;;;17.10;90.20;;;;;;5055163;28;20095;-76
2021/07/05 00:34:20;;;;;;;8.77;1.40;;;17.00;90.20;;;;;;5071314;28;20569;-76
2021/07/05 00:36:46;;;;;;;3.90;1.25;;;17.00;90.50;;;;;;5076323;28;20107;-76
2021/07/05 00:39:11;;;;;;;5.22;1.30;;;17.10;90.30;;;;;;5074505;28;20029;-76
2021/07/05 00:41:37;;;;;;;1.85;0.80;;;17.10;90.30;;;;;;5075911;28;20111;-76
2021/07/05 00:44:03;;;;;;;3.72;1.20;;;17.10;90.30;;;;;;5059611;28;20377;-76
2021/07/05 00:46:29;;;;;;;6.07;1.38;;;17.10;90.20;;;;;;5054558;28;20033;-76
2021/07/05 00:48:55;;;;;;;2.42;1.50;;;17.10;90.30;;;;;;5060499;28;20053;-76
2021/07/05 00:51:22;;;;;;;4.53;1.10;;;17.10;90.30;;;;;;5055375;28;20033;-76
2021/07/05 00:53:49;;;;;;;4.60;1.33;;;17.10;90.30;;;;;;5068086;28;20371;-76
2021/07/05 00:56:16;;;;;;;3.40;1.33;;;17.10;90.30;;;;;;5075140;28;20036;-76
2021/07/05 00:58:42;;;;;;;2.72;1.38;;;17.10;90.40;;;;;;5063090;28;20027;-76
2021/07/05 01:01:08;;;;;;;5.32;1.20;;;17.10;90.30;;;;;;5054185;28;20036;-76
2021/07/05 01:03:34;;;;;;;4.72;1.35;;;17.00;90.30;;;;;;5065900;28;20086;-76
2021/07/05 01:06:00;;;;;;;2.72;1.25;;;17.00;90.30;;;;;;5075339;28;20135;-76
2021/07/05 01:08:26;;;;;;;9.15;1.58;;;17.00;90.30;;;;;;5063528;28;20029;-76
2021/07/05 01:10:51;;;;;;;5.70;1.25;;;17.00;90.30;;;;;;5054655;28;20025;-76
2021/07/05 01:13:17;;;;;;;5.03;1.10;;;17.00;90.30;;;;;;5060739;28;20729;-76
2021/07/05 01:15:43;;;;;;;7.18;1.50;;;16.90;90.40;;;;;;5072125;28;20043;-76
2021/07/05 01:18:09;;;;;;;4.25;1.25;;;16.90;90.30;;;;;;5071124;28;20054;-76
2021/07/05 01:20:37;;;;;;;6.68;1.20;;;16.90;90.30;;;;;;5055347;28;20035;-76
2021/07/05 01:23:04;;;;;;;5.10;1.60;;;16.90;90.30;;;;;;5061030;28;20023;-76
2021/07/05 01:25:31;;;;;;;3.67;1.20;;;16.80;90.30;;;;;;5068679;28;20288;-76
2021/07/05 01:27:59;;;;;;;4.40;1.70;;;16.80;90.40;;;;;;5055949;28;20017;-76
2021/07/05 01:30:26;;;;;;;3.50;1.63;;;16.70;90.40;;;;;;5053707;28;20032;-76
2021/07/05 01:32:56;;;;;;;5.20;1.30;;;16.70;90.40;;;;;;5061450;28;20065;-76
2021/07/05 01:35:22;;;;;;;3.97;1.65;;;16.70;90.50;;;;;;5066977;28;20017;-76
2021/07/05 01:37:48;;;;;;;4.40;1.58;;;16.70;90.50;;;;;;5054853;28;20036;-76
2021/07/05 01:40:23;;;;;;;4.22;1.85;;;16.70;90.60;;;;;;5061220;28;20033;-76
2021/07/05 01:42:53;;;;;;;3.72;1.50;;;16.70;90.60;;;;;;5073577;28;20047;-76
2021/07/05 01:45:28;;;;;;;6.10;1.67;;;16.70;90.90;;;;;;5067255;28;20029;-76
2021/07/05 01:47:54;;;;;;;3.35;1.60;;;16.70;90.60;;;;;;5065141;28;20370;-76
2021/07/05 01:50:21;;;;;;;3.60;1.48;;;16.70;90.50;;;;;;5054587;28;20020;-76
2021/07/05 01:52:48;;;;;;;3.92;1.65;;;16.70;90.50;;;;;;5062957;28;20025;-76
2021/07/05 01:55:14;;;;;;;4.18;1.80;;;16.70;90.80;;;;;;5066782;28;20029;-76
2021/07/05 01:57:41;;;;;;;7.22;1.60;;;16.70;90.50;;;;;;5059513;28;20059;-76
2021/07/05 02:00:11;;;;;;;5.55;2.10;;;16.70;90.60;;;;;;5056532;28;20587;-76
2021/07/05 02:02:36;;;;;;;7.00;2.05;;;16.70;90.60;;;;;;5065638;28;20600;-76
2021/07/05 02:05:06;;;;;;;6.18;1.70;;;16.60;90.60;;;;;;5053878;28;20029;-76
2021/07/05 02:07:31;;;;;;;7.55;1.70;;;16.70;90.70;;;;;;5059002;28;20048;-76
2021/07/05 02:09:57;;;;;;;4.95;1.77;;;16.60;90.70;;;;;;5052726;28;20029;-76
2021/07/05 02:12:23;;;;;;;8.77;2.10;;;16.60;90.80;;;;;;5054496;28;20500;-76
2021/07/05 02:14:48;;;;;;;4.68;2.00;;;16.60;90.80;;;;;;5053554;28;20037;-76
2021/07/05 02:17:14;;;;;;;9.23;2.28;;;16.70;90.80;;;;;;5052579;28;20028;-76
2021/07/05 02:19:40;;;;;;;3.95;1.85;;;16.70;90.90;;;;;;5073516;28;20041;-76
2021/07/05 02:22:06;;;;;;;3.38;2.10;;;16.70;90.90;;;;;;5069625;28;20031;-76
2021/07/05 02:24:33;;;;;;;7.60;1.77;;;16.70;90.90;;;;;;5073300;28;20036;-76
2021/07/05 02:26:59;;;;;;;5.72;2.20;;;16.70;91.00;;;;;;5073051;28;20035;-76
2021/07/05 02:29:25;;;;;;;5.65;1.70;;;16.70;91.00;;;;;;5056425;28;20048;-76
2021/07/05 02:31:50;;;;;;;5.90;1.92;;;16.70;91.10;;;;;;5052514;28;20489;-76
2021/07/05 02:34:16;;;;;;;4.50;1.73;;;16.70;91.10;;;;;;5057533;28;20406;-76
2021/07/05 02:36:42;;;;;;;5.10;1.88;;;16.80;91.20;;;;;;5053531;28;20028;-76
2021/07/05 02:39:09;;;;;;;13.15;2.08;;;16.80;91.20;;;;;;5062261;28;20061;-76
2021/07/05 02:41:36;;;;;;;4.88;1.90;;;16.90;91.20;;;;;;5053285;28;20017;-76
2021/07/05 02:44:02;;;;;;;4.53;1.85;;;16.90;91.20;;;;;;5066985;28;20028;-76
2021/07/05 02:46:27;;;;;;;4.40;2.67;;;16.90;91.20;;;;;;5072411;28;20039;-76
2021/07/05 02:48:53;;;;;;;9.88;3.17;;;16.90;91.30;;;;;;5059236;28;20029;-76
2021/07/05 02:51:19;;;;;;;6.82;3.55;;;16.90;91.40;;;;;;5053659;28;20096;-76
2021/07/05 02:53:45;;;;;;;11.55;3.83;;;16.90;91.50;;;;;;5053414;28;20033;-76
2021/07/05 02:56:11;;;;;;;10.15;3.50;;;16.90;91.60;;;;;;5053467;28;20043;-77
2021/07/05 02:58:37;;;;;;;11.13;4.63;;;16.90;91.70;;;;;;5052159;28;20036;-77
2021/07/05 03:01:07;;;;;;;11.25;5.03;;;16.90;91.80;;;;;;5053497;28;20025;-77
2021/07/05 03:03:33;;;;;;;8.55;4.22;;;16.90;91.80;;;;;;5053267;28;20059;-77
2021/07/05 03:05:59;;;;;;;8.40;4.40;;;16.90;91.90;;;;;;5053400;28;20468;-77
2021/07/05 03:08:24;;;;;;;7.13;4.07;;;16.80;91.50;;;;;;5042638;28;20116;-77
2021/07/05 03:10:50;;;;;;;7.80;4.68;;;16.70;91.30;;;;;;5053418;28;20021;-77
2021/07/05 03:13:18;;;;;;;8.10;3.83;;;16.60;91.30;;;;;;5064767;28;20052;-77
2021/07/05 03:15:44;;;;;;;9.98;3.63;;;16.60;91.30;;;;;;5072213;28;20056;-77
2021/07/05 03:18:11;;;;;;;10.80;3.30;;;16.50;91.20;;;;;;5069163;28;20028;-77
2021/07/05 03:20:41;;;;;;;6.95;2.85;;;16.40;91.20;;;;;;5067699;28;20112;-77
2021/07/05 03:23:09;;;;;;;6.50;2.75;;;16.40;91.30;;;;;;5062182;28;20029;-77
2021/07/05 03:25:36;;;;;;;6.18;2.85;;;16.40;91.20;;;;;;5055782;28;20025;-77
2021/07/05 03:28:05;;;;;;;9.75;3.55;;;16.30;91.20;;;;;;5058262;28;20115;-77
2021/07/05 03:30:33;;;;;;;8.73;2.50;;;16.30;91.20;;;;;;5053429;28;20436;-77
2021/07/05 03:32:59;;;;;;;6.47;2.67;;;16.20;91.40;;;;;;5054769;28;20116;-77
2021/07/05 03:35:26;;;;;;;4.30;2.20;;;16.20;91.10;;;;;;5056425;28;20024;-77
2021/07/05 03:37:52;;;;;;;4.65;2.17;;;16.20;91.00;;;;;;5057165;28;20093;-77
2021/07/05 03:40:21;;;;;;;6.82;2.13;;;16.20;91.00;;;;;;5057409;28;20090;-77
2021/07/05 03:42:48;;;;;;;7.78;2.53;;;16.10;91.00;;;;;;5060520;28;20359;-77
2021/07/05 03:45:15;;;;;;;8.93;2.10;;;16.10;91.00;;;;;;5056149;28;20025;-77
2021/07/05 03:47:41;;;;;;;6.15;2.35;;;16.00;91.00;;;;;;5055925;28;20120;-77
2021/07/05 03:50:09;;;;;;;4.60;1.80;;;16.10;91.00;;;;;;5057279;28;20042;-77
2021/07/05 03:52:35;;;;;;;6.00;2.08;;;16.10;91.00;;;;;;5058630;28;20116;-77
2021/07/05 03:55:02;;;;;;;5.13;2.55;;;16.00;91.00;;;;;;5056991;28;20028;-77
2021/07/05 03:57:28;;;;;;;3.30;1.88;;;16.00;91.00;;;;;;5056927;28;20390;-77
2021/07/05 03:59:56;;;;;;;5.93;2.25;;;16.00;91.00;;;;;;5057179;28;20029;-76
2021/07/05 04:02:22;;;;;;;6.97;2.33;;;16.00;91.00;;;;;;5069093;28;20039;-77
2021/07/05 04:04:49;;;;;;;6.95;3.10;;;16.00;91.30;;;;;;5056949;28;20660;-77
2021/07/05 04:07:15;;;;;;;4.22;2.47;;;16.00;90.90;;;;;;5055464;28;20555;-77
2021/07/05 04:09:41;;;;;;;6.72;2.40;;;16.00;90.90;;;;;;5067403;28;20024;-77
2021/07/05 04:12:09;;;;;;;6.82;3.00;;;16.00;90.90;;;;;;5062978;28;20029;-77
2021/07/05 04:14:35;;;;;;;6.20;2.95;;;16.00;90.90;;;;;;5076845;28;20535;-77
2021/07/05 04:17:01;;;;;;;9.45;3.00;;;16.00;90.90;;;;;;5058723;28;20036;-77
2021/07/05 04:19:26;;;;;;;6.75;3.20;;;16.00;90.90;;;;;;5060959;28;20021;-77
2021/07/05 04:21:52;;;;;;;6.57;3.30;;;16.10;90.90;;;;;;5056617;28;20037;-77
2021/07/05 04:24:18;;;;;;;8.02;3.38;;;16.10;91.00;;;;;;5056526;28;20021;-77
2021/07/05 04:26:44;;;;;;;11.55;3.40;;;16.10;90.90;;;;;;5071024;28;20033;-77
2021/07/05 04:29:09;;;;;;;10.98;3.63;;;16.10;90.90;;;;;;5076409;28;20354;-77
2021/07/05 04:31:38;;;;;;;11.48;3.60;;;16.10;90.90;;;;;;5062396;28;20118;-77
2021/07/05 04:34:04;;;;;;;9.10;3.22;;;16.10;90.90;;;;;;5065434;28;20025;-77
2021/07/05 04:36:29;;;;;;;7.55;3.80;;;16.10;90.90;;;;;;5055733;28;20048;-77
2021/07/05 04:38:55;;;;;;;7.85;3.70;;;16.10;90.90;;;;;;5056085;28;20036;-77
2021/07/05 04:41:21;;;;;;;13.05;3.67;;;16.10;90.90;;;;;;5071472;28;20037;-77
2021/07/05 04:43:46;;;;;;;9.50;4.25;;;16.10;90.90;;;;;;5064583;28;20366;-77
2021/07/05 04:46:12;;;;;;;9.90;3.72;;;16.10;91.00;;;;;;5075332;28;20033;-77
2021/07/05 04:48:37;;;;;;;10.13;4.25;;;16.10;91.00;;;;;;5056727;28;20086;-77
2021/07/05 04:51:04;;;;;;;7.70;3.50;;;16.10;90.90;;;;;;5065518;28;20037;-77
2021/07/05 04:53:30;;;;;;;9.38;3.95;;;16.10;90.90;;;;;;5056346;28;20536;-79
2021/07/05 04:55:58;;;;;;;8.85;4.05;;;16.10;90.90;;;;;;5064817;28;20037;-78
2021/07/05 04:58:24;;;;;;;9.27;4.13;;;16.10;90.90;;;;;;5053916;28;20124;-79
2021/07/05 05:00:50;;;;;;;10.80;3.60;;;16.10;90.90;;;;;;5038007;28;20063;-78
2021/07/05 05:03:15;;;;;;;8.27;3.85;;;16.10;90.90;;;;;;5055495;28;20037;-78
2021/07/05 05:05:41;;;;;;;10.55;4.03;;;16.10;90.90;;;;;;5054099;28;20033;-78
2021/07/05 05:08:11;;;;;;;7.57;3.58;;;16.20;90.80;;;;;;5055558;28;20090;-78
2021/07/05 05:10:39;;;;;;;11.07;4.18;;;16.20;90.80;;;;;;5054961;28;20505;-78
2021/07/05 05:13:05;;;;;;;9.02;3.78;;;16.20;90.80;;;;;;5058552;28;20021;-78
2021/07/05 05:15:31;;;;;;;9.60;3.90;;;16.20;90.80;;;;;;5075308;28;20029;-78
2021/07/05 05:17:57;;;;;;;8.10;3.95;;;16.20;90.80;;;;;;5073544;28;20043;-77
2021/07/05 05:20:23;;;;;;;10.43;3.47;;;16.30;90.80;;;;;;5059565;28;20033;-77
2021/07/05 05:22:50;;;;;;;8.10;4.38;;;16.30;90.80;;;;;;5059633;28;20041;-79
2021/07/05 05:25:17;;;;;;;9.25;3.85;;;16.30;90.90;;;;;;5069019;28;20429;-77
2021/07/05 05:27:44;;;;;;;4.90;3.20;;;16.30;90.90;;;;;;5058671;28;20470;-77
2021/07/05 05:30:11;;;;;;;7.55;3.70;;;16.30;90.80;;;;;;5072467;28;20086;-77
2021/07/05 05:32:37;;;;;;;4.88;3.53;;;16.30;90.80;;;;;;5066822;28;20025;-77
2021/07/05 05:35:05;;;;;;;7.57;3.38;;;16.40;90.80;;;;;;5055286;28;20029;-77
2021/07/05 05:37:30;;;;;;;10.30;3.90;;;16.40;90.80;;;;;;5058678;28;20061;-82
2021/07/05 05:39:56;;;;;;;7.50;3.40;;;16.40;90.70;;;;;;5069600;28;20055;-77
2021/07/05 05:42:22;;;;;;;6.93;3.92;;;16.40;91.00;;;;;;5061167;28;20039;-77
2021/07/05 05:44:48;;;;;;;6.65;3.28;;;16.50;90.70;;;;;;5061065;28;20025;-77
2021/07/05 05:47:14;;;;;;;6.93;3.42;;;16.40;90.60;;;;;;5079868;28;20094;-76
2021/07/05 05:49:40;;;;;;;7.32;3.85;;;16.40;90.70;;;;;;5064301;28;20469;-77
2021/07/05 05:52:06;;;;;;;8.30;3.50;;;16.50;90.60;;;;;;5066861;28;20078;-77
2021/07/05 05:54:31;;;;;;;5.25;3.38;;;16.50;90.60;;;;;;5054894;28;20017;-77
2021/07/05 05:56:57;;;;;;;8.57;3.22;;;16.50;90.70;;;;;;5065406;28;20371;-77
2021/07/05 05:59:23;;;;;;;5.97;2.88;;;16.50;90.70;;;;;;5067809;28;20029;-77
2021/07/05 06:01:51;;;;;;;4.25;2.92;;;16.50;90.50;;;;;;5062121;28;20481;-77
2021/07/05 06:04:21;;;;;;;6.25;2.70;;;16.50;90.50;;;;;;5068046;28;20513;-77
2021/07/05 06:06:47;;;;;;;5.28;3.17;;;16.60;90.60;;;;;;5065723;28;20044;-77
2021/07/05 06:09:13;;;;;;;6.88;3.35;;;16.60;90.90;;;;;;5056908;28;20481;-77
2021/07/05 06:11:40;;;;;;;8.80;3.38;;;16.60;90.90;;;;;;5062456;28;20033;-77
2021/07/05 06:14:07;;;;;;;8.57;3.60;;;16.60;90.80;;;;;;5060059;28;20025;-77
2021/07/05 06:16:34;;;;;;;6.60;3.05;;;16.70;90.60;;;;;;5061356;28;20503;-77
2021/07/05 06:19:00;;;;;;;11.43;3.90;;;16.70;90.70;;;;;;5070907;28;20040;-76
2021/07/05 06:21:27;;;;;;;10.43;4.07;;;16.70;90.70;;;;;;5058373;28;20036;-77
2021/07/05 06:23:54;;;;;;;7.78;3.70;;;16.80;90.70;;;;;;5059448;28;20052;-77
2021/07/05 06:26:20;;;;;;;7.18;3.50;;;16.80;90.80;;;;;;5066660;28;20036;-77
2021/07/05 06:28:45;;;;;;;8.13;3.50;;;16.80;91.00;;;;;;5069267;28;20028;-77
2021/07/05 06:31:11;;;;;;;6.75;3.33;;;16.90;90.70;;;;;;5057614;28;20108;-77
2021/07/05 06:33:36;;;;;;;6.53;3.03;;;16.90;90.70;;;;;;5068826;28;20621;-77
2021/07/05 06:36:02;;;;;;;5.30;3.20;;;16.90;90.60;;;;;;5059032;28;20047;-76
2021/07/05 06:38:28;;;;;;;5.78;3.35;;;17.00;90.70;;;;;;5062784;28;20028;-76
2021/07/05 06:40:56;;;;;;;6.88;3.45;;;17.00;90.70;;;;;;5071781;28;20032;-76
2021/07/05 06:43:21;;;;;;;5.75;3.42;;;17.00;90.60;;;;;;5068748;28;20032;-76
2021/07/05 06:45:47;;;;;;;8.88;3.63;;;17.10;90.70;;;;;;5062353;28;20032;-77
2021/07/05 06:48:13;;;;;;;8.85;3.58;;;17.20;90.70;;;;;;5051471;28;20140;-77
2021/07/05 06:50:38;;;;;;;6.10;3.33;;;17.20;91.00;;;;;;5061108;28;20029;-76
2021/07/05 06:53:06;;;;;;;7.03;3.28;;;17.30;90.80;;;;;;5073230;28;20028;-77
2021/07/05 06:55:32;;;;;;;9.00;3.10;;;17.30;90.70;;;;;;5069295;28;20052;-76
2021/07/05 06:57:57;;;;;;;6.38;3.50;;;17.40;90.60;;;;;;5069559;28;20109;-77
2021/07/05 07:00:26;;;;;;;10.27;3.50;;;17.30;90.60;;;;;;5066099;28;20132;-77
2021/07/05 07:02:52;;;;;;;8.10;3.38;;;17.40;90.60;;;;;;5072639;28;20039;-77
2021/07/05 07:05:19;;;;;;;8.13;3.40;;;17.40;90.90;;;;;;5063192;28;20101;-77
2021/07/05 07:07:53;;;;;;;5.45;3.38;;;17.40;90.50;;;;;;5071486;28;20044;-77
2021/07/05 07:10:21;;;;;;;6.05;3.08;;;17.40;90.40;;;;;;5059717;28;20021;-77
2021/07/05 07:12:48;;;;;;;7.35;3.08;;;17.50;90.50;;;;;;5069445;28;20032;-76
2021/07/05 07:15:20;;;;;;;6.35;3.40;;;17.50;90.50;;;;;;5069875;28;20376;-77
2021/07/05 07:17:51;;;;;;;9.20;3.08;;;17.60;90.60;;;;;;5040646;28;20107;-76
2021/07/05 07:20:18;;;;;;;12.15;2.90;;;17.70;90.60;;;;;;5065541;28;20498;-77
2021/07/05 07:22:44;;;;;;;6.65;2.83;;;17.70;90.50;;;;;;5054750;28;20044;-77
2021/07/05 07:25:12;;;;;;;9.45;3.00;;;17.70;90.30;;;;;;5055102;28;20025;-76
2021/07/05 07:27:39;;;;;;;11.45;3.33;;;17.80;90.30;;;;;;5072243;28;20036;-77
2021/07/05 07:30:07;;;;;;;6.88;3.22;;;17.70;90.60;;;;;;5069741;28;20048;-77
2021/07/05 07:32:32;;;;;;;9.30;3.30;;;17.90;90.40;;;;;;5043063;28;20517;-77
2021/07/05 07:34:58;;;;;;;10.40;3.20;;;17.90;90.40;;;;;;5068882;28;20119;-76
2021/07/05 07:37:25;;;;;;;5.45;2.70;;;18.00;90.20;;;;;;5058613;28;20040;-76
2021/07/05 07:42:43;;;;;;;10.02;3.20;;;18.20;89.70;;;;;;5045111;28;20095;-76
2021/07/05 07:45:10;;;;;;;9.65;2.97;;;18.20;89.80;;;;;;5071270;28;20035;-77
2021/07/05 07:47:36;;;;;;;9.43;3.28;;;18.30;89.60;;;;;;5061862;28;20459;-76
2021/07/05 07:50:04;;;;;;;6.30;3.10;;;18.40;89.30;;;;;;5063294;28;20151;-76
2021/07/05 07:52:29;;;;;;;8.27;3.17;;;18.40;89.20;;;;;;5066923;28;20021;-76
2021/07/05 07:54:58;;;;;;;8.93;3.13;;;18.50;89.90;;;;;;5069796;28;20043;-75
2021/07/05 07:57:23;;;;;;;;;;;18.60;88.60;;;;;;5051752;28;20035;-76
2021/07/05 07:59:49;;;;;;;9.23;3.10;;;18.60;88.20;;;;;;5067651;28;19912;-76
2021/07/05 08:02:15;;;;;;;9.73;3.10;;;18.70;88.60;;;;;;5068809;28;20090;-76
2021/07/05 08:04:41;;;;;;;7.55;2.75;;;18.80;88.50;;;;;;5064818;28;20033;-76
2021/07/05 08:07:06;;;;;;;7.35;3.35;;;18.80;88.00;;;;;;5066149;28;20450;-76
2021/07/05 08:09:33;;;;;;;8.63;3.13;;;18.90;87.60;;;;;;5051841;28;20024;-76
2021/07/05 08:12:00;;;;;;;8.20;3.20;;;18.90;87.60;;;;;;5059507;28;20055;-76
2021/07/05 08:14:26;;;;;;;13.30;2.80;;;19.00;86.90;;;;;;5053803;28;20430;-76
2021/07/05 08:16:51;;;;;;;6.90;2.70;;;18.90;86.90;;;;;;5071011;28;20124;-76
2021/07/05 08:19:18;;;;;;;10.80;3.03;;;18.90;86.20;;;;;;5049751;28;20527;-76
2021/07/05 08:21:44;;;;;;;9.07;3.00;;;18.90;86.30;;;;;;5074629;28;20028;-76
2021/07/05 08:24:10;;;;;;;4.78;2.40;;;19.00;86.30;;;;;;5068425;28;20397;-76
2021/07/05 08:26:35;;;;;;;10.05;3.03;;;19.10;86.50;;;;;;5056525;28;20124;-76
2021/07/05 08:29:02;;;;;;;6.18;2.67;;;19.20;85.90;;;;;;5074037;28;20066;-76
2021/07/05 08:31:28;;;;;;;11.13;3.40;;;19.10;85.70;;;;;;5042963;28;20029;-76
2021/07/05 08:33:54;;;;;;;9.00;3.13;;;19.20;85.20;;;;;;5060847;28;20035;-76
2021/07/05 08:36:20;;;;;;;5.15;2.80;;;19.10;85.70;;;;;;5072764;28;20089;-75
2021/07/05 08:38:47;;;;;;;5.07;2.75;;;19.10;85.60;;;;;;5062025;28;20021;-76
2021/07/05 08:41:14;;;;;;;5.95;3.22;;;19.10;85.60;;;;;;5061399;28;20052;-76
2021/07/05 08:43:44;;;;;;;9.68;3.55;;;19.20;85.70;;;;;;5059031;28;20040;-76
2021/07/05 08:46:13;;;;;;;8.95;3.38;;;19.30;85.70;;;;;;5061482;28;20028;-76
2021/07/05 08:48:39;;;;;;;;;;;19.40;86.00;;;;;;5071018;28;20029;-76
2021/07/05 08:51:08;;;;;;;8.80;3.53;;;19.60;85.50;;;;;;5068554;28;19918;-76
2021/07/05 08:53:33;;;;;;;7.97;3.55;;;19.70;85.60;;;;;;5069607;28;20066;-76
2021/07/05 08:55:59;;;;;;;8.40;3.35;;;19.90;85.30;;;;;;5071860;28;20033;-76
2021/07/05 08:58:25;;;;;;;10.52;3.20;;;19.90;84.20;;;;;;5063320;28;20020;-76
2021/07/05 09:00:51;;;;;;;8.52;3.20;;;19.90;83.60;;;;;;5069982;28;20094;-75
2021/07/05 09:03:23;;;;;;;6.55;3.38;;;19.90;83.90;;;;;;5067715;28;20033;-76
2021/07/05 09:06:12;;;;;;;8.73;3.10;;;19.90;83.50;;;;;;5040863;28;20580;-76
2021/07/05 09:08:39;;;;;;;6.78;2.97;;;19.90;83.50;;;;;;5064139;28;20028;-76
2021/07/05 09:11:40;;;;;;;7.05;3.08;;;19.80;82.50;;;;;;5072198;28;20031;-76
2021/07/05 09:14:11;;;;;;;6.85;3.15;;;19.70;83.50;;;;;;5045408;28;20116;-76
2021/07/05 09:16:38;;;;;;;8.82;3.42;;;19.50;83.20;;;;;;5071759;28;20036;-76
2021/07/05 09:19:34;;;;;;;10.48;3.53;;;19.40;84.00;;;;;;5074764;28;20389;-76
2021/07/05 09:22:03;;;;;;;8.65;3.47;;;19.30;83.20;;;;;;5060567;28;20025;-76
2021/07/05 09:24:33;;;;;;;7.20;3.28;;;19.30;84.10;;;;;;5073800;28;20021;-75
2021/07/05 09:27:07;;;;;;;8.82;3.40;;;19.20;85.00;;;;;;5072981;28;20028;-76
2021/07/05 09:29:33;;;;;;;9.18;3.55;;;19.20;84.70;;;;;;5056603;28;20503;-76
2021/07/05 09:32:01;;;;;;;11.25;3.47;;;19.10;85.10;;;;;;5063741;28;20020;-75
2021/07/05 09:34:36;;;;;;;7.45;3.42;;;19.00;85.40;;;;;;5064210;28;20032;-76
2021/07/05 09:37:22;;;;;;;9.68;3.42;;;18.90;86.20;;;;;;5072250;28;20361;-76
2021/07/05 09:40:03;;;;;;;9.20;3.53;;;18.80;86.30;;;;;;5055909;28;20025;-76
2021/07/05 09:42:48;;;;;;;8.07;3.17;;;18.70;86.90;;;;;;5040371;28;20052;-75
2021/07/05 09:45:23;;;;;;;11.27;3.40;;;18.70;87.20;;;;;;5069150;28;20020;-76
2021/07/05 09:48:21;;;;;;;11.70;3.42;;;18.70;86.80;;;;;;5061669;28;20077;-75
2021/07/05 09:50:50;;;;;;;4.78;2.47;;;18.80;86.80;;;;;;5064412;28;20381;-76
2021/07/05 09:53:34;;;;;;;5.72;2.90;;;18.80;86.40;;;;;;5068280;28;20033;-75
2021/07/05 09:56:22;;;;;;;8.65;3.47;;;19.00;85.60;;;;;;5057447;28;20031;-75
2021/07/05 09:58:51;;;;;;;5.25;2.80;;;19.20;86.50;;;;;;5061938;28;20064;-75
2021/07/05 10:01:39;;;;;;;8.13;2.63;;;19.40;86.30;;;;;;5070628;28;20024;-75
2021/07/05 10:04:08;;;;;;;4.55;2.40;;;19.60;85.90;;;;;;5052552;28;20028;-76
2021/07/05 10:06:44;;;;;;;4.72;2.28;;;19.70;85.40;;;;;;5068534;28;20048;-76
2021/07/05 10:09:11;;;;;;;6.53;1.90;;;19.80;82.90;;;;;;5070357;28;20389;-75
2021/07/05 10:11:37;;;;;;;4.53;1.55;;;19.80;82.50;;;;;;5070211;28;20036;-76
2021/07/05 10:14:12;;;;;;;5.10;1.73;;;19.80;81.90;;;;;;5061250;28;20079;-75
2021/07/05 10:16:38;;;;;;;2.97;1.75;;;19.90;82.20;;;;;;5073488;28;20103;-75
2021/07/05 10:19:04;;;;;;;2.75;1.60;;;20.10;82.20;;;;;;5072767;28;20505;-76
2021/07/05 10:21:30;;;;;;;3.60;1.35;;;20.20;81.80;;;;;;5058141;28;20116;-76
2021/07/05 10:23:56;;;;;;;4.93;1.55;;;20.40;81.90;;;;;;5064840;28;20130;-76
2021/07/05 10:26:21;;;;;;;3.30;1.13;;;20.50;80.60;;;;;;5062367;28;20029;-75
2021/07/05 10:28:47;;;;;;;4.18;1.80;;;20.50;80.00;;;;;;5060352;28;20029;-76
2021/07/05 10:31:13;;;;;;;3.47;1.75;;;20.60;78.50;;;;;;5067776;28;20037;-77
2021/07/05 10:33:39;;;;;;;5.18;1.48;;;20.60;78.50;;;;;;5068724;28;20029;-76
2021/07/05 10:36:10;;;;;;;2.78;1.40;;;20.70;78.60;;;;;;5061912;28;20024;-76
2021/07/05 10:38:55;;;;;;;3.97;1.73;;;20.80;77.90;;;;;;5061761;28;20025;-77
2021/07/05 10:41:22;;;;;;;5.15;1.92;;;21.00;78.50;;;;;;5052693;28;20024;-76
2021/07/05 10:43:58;;;;;;;4.95;2.10;;;21.30;77.70;;;;;;5053198;28;20040;-76
2021/07/05 10:46:42;;;;;;;2.85;2.00;;;21.60;78.10;;;;;;5058324;28;20032;-77
2021/07/05 10:49:31;;;;;;;3.60;2.10;;;21.90;75.10;;;;;;5052579;28;20025;-77
2021/07/05 10:52:02;;;;;;;4.57;2.28;;;22.00;73.90;;;;;;5058077;28;20035;-77
2021/07/05 10:54:54;;;;;;;3.92;2.05;;;21.90;73.30;;;;;;5070726;28;20025;-77
2021/07/05 10:57:45;;;;;;;5.22;2.35;;;21.90;72.80;;;;;;5064253;28;20036;-77
2021/07/05 11:00:16;;;;;;;3.95;2.20;;;21.80;73.80;;;;;;5071009;28;20020;-76
2021/07/05 11:02:43;;;;;;;3.88;1.85;;;21.70;73.30;;;;;;5068541;28;20488;-84
2021/07/05 11:05:36;;;;;;;10.43;2.20;;;21.70;74.30;;;;;;5053430;28;20025;-84
2021/07/05 11:08:17;;;;;;;6.50;2.05;;;21.60;74.10;;;;;;5053147;28;20125;-83
2021/07/05 11:10:44;;;;;;;4.15;1.40;;;21.50;71.40;;;;;;5070229;28;20020;-84
2021/07/05 11:13:10;;;;;;;5.53;1.70;;;21.40;72.10;;;;;;5073330;28;20086;-84
2021/07/05 11:15:56;;;;;;;4.30;1.70;;;21.40;72.70;;;;;;5072085;28;20024;-84
2021/07/05 11:21:16;;;;;;;6.20;1.80;;;21.30;74.00;;;;;;5041505;28;20025;-84
2021/07/05 11:26:35;;;;;;;6.43;1.70;;;21.20;72.70;;;;;;5073296;28;20040;-84
2021/07/05 11:29:16;;;;;;;4.15;1.67;;;21.20;72.70;;;;;;5065353;28;20021;-84
2021/07/05 11:31:57;;;;;;;4.07;1.65;;;21.00;73.50;;;;;;5062335;28;20029;-84
2021/07/05 11:34:32;;;;;;;2.80;1.92;;;20.80;74.30;;;;;;5063148;28;20031;-84
2021/07/05 11:37:13;;;;;;;5.32;1.83;;;20.70;75.90;;;;;;5047521;28;20492;-76
2021/07/05 11:39:51;;;;;;;3.15;1.77;;;20.60;74.10;;;;;;5059193;28;20048;-76
2021/07/05 11:42:30;;;;;;;4.70;1.80;;;20.60;75.60;;;;;;5057692;28;20032;-77
2021/07/05 11:44:57;;;;;;;6.80;2.30;;;20.60;75.40;;;;;;5054692;28;20036;-75
2021/07/05 11:47:37;;;;;;;7.72;1.90;;;20.60;74.50;;;;;;5063883;28;20028;-75
2021/07/05 11:50:20;;;;;;;5.63;1.67;;;20.70;74.60;;;;;;5059791;28;20078;-75
2021/07/05 11:52:55;;;;;;;5.03;2.13;;;20.70;73.90;;;;;;5068797;28;20024;-84
2021/07/05 11:55:33;;;;;;;6.85;1.92;;;20.90;76.10;;;;;;5075107;28;20040;-84
2021/07/05 11:58:08;;;;;;;7.60;2.17;;;20.90;74.10;;;;;;5077130;28;20021;-84
2021/07/05 12:00:37;;;;;;;4.43;2.20;;;21.00;74.90;;;;;;5065302;28;20032;-86
2021/07/05 12:03:14;;;;;;;7.72;2.33;;;21.10;74.20;;;;;;5056702;28;20029;-86
2021/07/05 12:05:57;;;;;;;8.70;2.20;;;21.10;72.90;;;;;;5055535;28;20053;-86
2021/07/05 12:08:22;;;;;;;5.20;2.20;;;21.10;72.10;;;;;;5056455;28;20072;-86
2021/07/05 12:10:48;;;;;;;5.18;2.00;;;20.90;73.90;;;;;;5065551;28;20493;-86
2021/07/05 12:13:26;;;;;;;5.57;2.00;;;20.80;74.50;;;;;;5055514;28;20462;-86
2021/07/05 12:16:03;;;;;;;5.35;2.30;;;20.70;73.10;;;;;;5055225;28;20039;-86
2021/07/05 12:18:29;;;;;;;6.10;2.47;;;20.70;73.60;;;;;;5036757;28;20427;-86
2021/07/05 12:20:57;;;;;;;8.35;2.63;;;20.60;75.30;;;;;;5036473;28;20449;-86
2021/07/05 12:23:31;;;;;;;8.33;2.93;;;20.60;76.20;;;;;;5043908;28;20024;-85
2021/07/05 12:25:56;;;;;;;4.70;3.17;;;20.40;77.20;;;;;;5043876;28;20029;-86
2021/07/05 12:28:22;;;;;;;6.22;2.85;;;20.20;77.40;;;;;;5042809;28;20385;-86
2021/07/05 12:30:49;;;;;;;7.68;3.33;;;20.20;77.90;;;;;;5036160;28;20033;-86
2021/07/05 12:33:17;;;;;;;5.85;3.00;;;20.20;77.30;;;;;;5044214;28;20029;-86
2021/07/05 12:35:43;;;;;;;5.30;2.53;;;20.20;78.70;;;;;;5076148;28;20473;-86
2021/07/05 12:38:13;;;;;;;5.47;2.90;;;20.30;78.10;;;;;;5074935;28;20273;-86
2021/07/05 12:40:40;;;;;;;4.72;2.17;;;20.50;77.20;;;;;;5075999;28;20028;-85
2021/07/05 12:43:12;;;;;;;4.32;2.45;;;20.70;76.10;;;;;;5055049;28;20029;-85
2021/07/05 12:45:43;;;;;;;5.03;2.78;;;20.80;75.10;;;;;;5075882;28;20507;-86
2021/07/05 12:48:23;;;;;;;6.47;2.60;;;20.90;74.70;;;;;;5059796;28;20017;-85
2021/07/05 12:50:55;;;;;;;5.45;2.63;;;21.00;74.90;;;;;;5064659;28;20032;-83
2021/07/05 12:53:29;;;;;;;5.35;2.65;;;21.10;75.90;;;;;;5075995;28;20024;-84
2021/07/05 12:56:22;;;;;;;7.82;2.47;;;21.10;75.70;;;;;;5074335;28;20027;-83
2021/07/05 12:58:56;;;;;;;4.20;1.80;;;21.10;75.00;;;;;;5074481;28;20431;-83
2021/07/05 13:01:32;;;;;;;6.97;1.75;;;21.10;76.00;;;;;;5075659;28;20109;-83